Terminal Aerodrome Forecast
Issued by NWS

Home | Current Version | Previous Version | Text Only | Print | Product List | Glossary On
Versions: 1 2 3 4 5 6 7 8 9 10 11 12 13 14 15 16 17 18 19 20 21 22 23 24 25 26
000
FTUS46 KSGX 171700
TAFSAN
TAF
KSAN 171723Z 1718/1824 VRB05KT P6SM SCT025 SCT040
     FM172000 28010KT P6SM SCT025 SCT040
     FM180200 VRB05KT P6SM BKN035
     FM181200 VRB05KT P6SM VCSH BKN025 OVC035
     FM181700 VRB04KT P6SM SCT025 BKN035
     FM182000 29009KT P6SM SCT025 SCT060=

USA.gov is the U.S. government's official web portal to all federal, state and local government web resources and services.